createdAt,value
2019-06-07T00:04:45.055Z,5.73
2019-06-07T00:07:26.277Z,5.50
2019-06-07T00:10:32.618Z,5.00
2019-06-07T00:13:04.293Z,6.10
2019-06-07T00:15:40.281Z,6.27
2019-06-07T00:22:29.152Z,6.03
2019-06-07T00:25:17.354Z,6.43
2019-06-07T00:28:02.263Z,6.87
2019-06-07T00:30:51.760Z,7.07
2019-06-07T00:33:56.315Z,6.40
2019-06-07T00:36:42.303Z,6.47
2019-06-07T00:39:39.755Z,5.90
2019-06-07T00:42:26.442Z,6.37
2019-06-07T00:45:24.656Z,6.20
2019-06-07T00:51:50.558Z,7.40
2019-06-07T00:54:25.718Z,6.40
2019-06-07T00:57:12.431Z,6.20
2019-06-07T01:00:10.199Z,6.43
2019-06-07T01:02:48.087Z,6.50
2019-06-07T01:05:31.534Z,6.17
2019-06-07T01:08:40.754Z,6.17
2019-06-07T01:11:25.831Z,6.40
2019-06-07T01:14:27.752Z,6.87
2019-06-07T01:17:28.003Z,7.23
2019-06-07T01:28:52.306Z,6.90
2019-06-07T01:31:38.647Z,7.03
2019-06-07T01:34:25.211Z,6.20
2019-06-07T01:37:12.476Z,6.43
2019-06-07T01:40:13.279Z,6.27
2019-06-07T01:46:08.637Z,5.97
2019-06-07T01:48:49.814Z,6.00
2019-06-07T01:51:50.276Z,6.47
2019-06-07T01:58:22.078Z,6.83
2019-06-07T02:09:02.219Z,6.57
2019-06-07T02:15:36.115Z,6.77
2019-06-07T02:24:17.330Z,6.07
2019-06-07T02:27:24.652Z,6.87
2019-06-07T02:33:52.766Z,6.70
2019-06-07T02:36:42.136Z,7.07
2019-06-07T02:39:40.545Z,6.70
2019-06-07T03:02:35.058Z,6.33
2019-06-07T03:08:28.352Z,6.33
2019-06-07T03:11:20.855Z,7.60
2019-06-07T03:14:03.673Z,6.13
2019-06-07T03:20:20.911Z,5.93
2019-06-07T03:23:06.603Z,5.87
2019-06-07T03:26:02.928Z,6.07
2019-06-07T03:28:45.947Z,6.17
2019-06-07T03:31:28.548Z,5.77
2019-06-07T03:34:13.836Z,6.10
2019-06-07T03:37:07.733Z,6.20
2019-06-07T03:39:50.935Z,7.03
2019-06-07T03:42:40.419Z,6.33
2019-06-07T03:45:41.554Z,5.20
2019-06-07T03:48:41.024Z,6.30
2019-06-07T03:51:25.217Z,5.67
2019-06-07T03:54:21.768Z,5.57
2019-06-07T03:57:05.290Z,5.20
2019-06-07T03:59:57.652Z,5.93
2019-06-07T04:03:08.080Z,5.83
2019-06-07T04:05:53.809Z,5.70
2019-06-07T04:08:46.818Z,5.93
2019-06-07T04:11:32.539Z,5.47
2019-06-07T04:14:35.148Z,5.73
2019-06-07T04:17:22.915Z,6.03
2019-06-07T04:20:05.434Z,5.70
2019-06-07T04:22:49.980Z,5.73
2019-06-07T04:32:16.497Z,5.90
2019-06-07T04:34:58.256Z,6.03
2019-06-07T04:37:44.956Z,6.40
2019-06-07T04:40:36.158Z,7.13
2019-06-07T04:43:21.175Z,5.87
2019-06-07T04:46:40.811Z,7.10
2019-06-07T04:49:20.060Z,7.07
2019-06-07T04:52:06.141Z,7.10
2019-06-07T04:54:47.950Z,7.83
2019-06-07T05:00:52.361Z,8.97
2019-06-07T05:03:35.074Z,8.33
2019-06-07T05:06:14.421Z,8.77
2019-06-07T05:08:59.083Z,8.70
2019-06-07T05:11:45.136Z,8.70
2019-06-07T05:14:22.460Z,7.60
2019-06-07T05:17:11.431Z,8.77
2019-06-07T05:19:47.521Z,8.30
2019-06-07T05:22:40.806Z,8.93
2019-06-07T05:25:17.000Z,8.20
2019-06-07T05:27:56.131Z,9.43
2019-06-07T05:31:05.321Z,9.20
2019-06-07T05:33:25.241Z,8.87
2019-06-07T05:36:09.082Z,8.67
2019-06-07T05:38:49.535Z,9.13
2019-06-07T05:41:34.245Z,9.77
2019-06-07T05:44:15.391Z,8.60
2019-06-07T05:46:56.650Z,9.20
2019-06-07T05:49:43.847Z,9.50
2019-06-07T05:52:20.791Z,9.00
2019-06-07T05:55:03.877Z,9.37
2019-06-07T05:57:50.658Z,8.57
2019-06-07T06:10:44.831Z,9.13
2019-06-07T06:16:39.837Z,9.93
2019-06-07T06:23:04.261Z,10.00
2019-06-07T06:28:49.445Z,9.77
2019-06-07T06:32:40.476Z,10.03
2019-06-07T06:34:45.725Z,9.93
2019-06-07T06:37:23.192Z,10.47
2019-06-07T06:40:06.214Z,10.53
2019-06-07T06:42:54.668Z,10.30
2019-06-07T06:45:39.843Z,11.30
2019-06-07T06:48:18.174Z,10.13
2019-06-07T06:51:03.636Z,10.83
2019-06-07T06:57:25.643Z,11.07
2019-06-07T07:00:08.202Z,11.27
2019-06-07T07:03:39.599Z,9.53
2019-06-07T07:05:30.131Z,10.73
2019-06-07T07:08:19.579Z,11.87
2019-06-07T07:14:42.246Z,10.77
2019-06-07T07:21:04.222Z,10.47
2019-06-07T07:24:08.200Z,11.13
2019-06-07T07:26:28.660Z,10.93
2019-06-07T07:29:04.069Z,10.60
2019-06-07T07:31:45.644Z,10.57
2019-06-07T07:34:34.551Z,11.20
2019-06-07T07:46:58.244Z,11.23
2019-06-07T07:53:02.681Z,11.17
2019-06-07T07:55:44.919Z,11.33
2019-06-07T07:58:21.266Z,11.77
2019-06-07T08:01:10.382Z,10.50
2019-06-07T08:03:43.205Z,11.17
2019-06-07T08:06:17.680Z,10.50
2019-06-07T08:09:02.291Z,11.17
2019-06-07T08:11:38.131Z,10.83
2019-06-07T08:14:16.243Z,11.03
2019-06-07T08:16:54.484Z,11.17
2019-06-07T08:19:33.717Z,11.60
2019-06-07T08:22:15.062Z,11.33
2019-06-07T08:24:53.161Z,11.13
2019-06-07T08:27:32.913Z,11.27
2019-06-07T08:33:56.568Z,10.53
2019-06-07T08:40:01.972Z,12.63
2019-06-07T08:42:56.146Z,12.33
2019-06-07T08:45:16.231Z,11.70
2019-06-07T08:51:35.526Z,11.83
2019-06-07T08:54:22.244Z,10.67
2019-06-07T08:57:06.666Z,12.10
2019-06-07T09:03:12.249Z,11.83
2019-06-07T09:05:48.385Z,11.33
2019-06-07T09:08:30.015Z,11.07
2019-06-07T09:11:05.132Z,12.50
2019-06-07T09:13:39.142Z,11.67
2019-06-07T09:16:20.031Z,12.07
2019-06-07T09:19:04.005Z,11.97
2019-06-07T09:21:36.942Z,11.73
2019-06-07T09:24:12.308Z,11.20
2019-06-07T09:26:49.258Z,11.37
2019-06-07T09:29:25.110Z,12.03
2019-06-07T09:32:05.876Z,12.00
2019-06-07T09:34:43.577Z,11.60
2019-06-07T09:38:03.511Z,11.97
2019-06-07T09:40:12.076Z,12.63
2019-06-07T09:42:39.331Z,12.47
2019-06-07T09:45:20.301Z,13.33
2019-06-07T09:48:10.095Z,12.40
2019-06-07T09:50:39.382Z,12.40
2019-06-07T09:53:25.675Z,13.10
2019-06-07T09:56:12.226Z,12.83
2019-06-07T09:58:51.892Z,12.33
2019-06-07T10:04:58.552Z,13.30
2019-06-07T10:11:06.969Z,12.00
2019-06-07T10:17:19.691Z,13.40
2019-06-07T10:23:27.802Z,12.17
2019-06-07T10:26:12.977Z,11.97
2019-06-07T10:28:53.812Z,12.70
2019-06-07T10:31:40.809Z,12.63
2019-06-07T10:34:16.803Z,11.77
2019-06-07T10:36:53.403Z,13.33
2019-06-07T10:39:48.111Z,13.30
2019-06-07T10:42:17.183Z,12.40
2019-06-07T10:44:51.840Z,12.77
2019-06-07T10:47:39.334Z,11.97
2019-06-07T10:50:26.256Z,13.57
2019-06-07T10:53:10.738Z,12.47
2019-06-07T10:55:49.833Z,13.07
2019-06-07T10:58:35.718Z,12.80
2019-06-07T11:01:15.054Z,12.70
2019-06-07T11:04:00.330Z,12.67
2019-06-07T11:06:39.836Z,13.50
2019-06-07T11:09:19.731Z,12.43
2019-06-07T11:21:26.238Z,11.83
2019-06-07T11:24:17.822Z,12.47
2019-06-07T11:26:54.736Z,12.13
2019-06-07T11:29:40.080Z,11.53
2019-06-07T11:32:14.880Z,9.13
2019-06-07T11:34:54.378Z,11.13
2019-06-07T11:37:32.688Z,12.57
2019-06-07T11:40:35.594Z,11.57
2019-06-07T11:42:53.203Z,9.50
2019-06-07T11:45:31.306Z,9.83
2019-06-07T11:48:18.432Z,9.07
2019-06-07T11:50:54.688Z,10.60
2019-06-07T11:53:29.866Z,10.17
2019-06-07T11:59:34.480Z,11.10
2019-06-07T12:02:13.514Z,11.20
2019-06-07T12:08:39.882Z,10.40
2019-06-07T12:11:14.399Z,11.50
2019-06-07T12:13:50.530Z,12.53
2019-06-07T12:16:26.870Z,11.27
2019-06-07T12:19:01.875Z,10.50
2019-06-07T12:21:36.452Z,11.10
2019-06-07T12:24:14.354Z,12.43
2019-06-07T12:26:49.910Z,13.67
2019-06-07T12:29:34.121Z,12.33
2019-06-07T12:32:15.271Z,11.90
2019-06-07T12:38:19.409Z,12.47
2019-06-07T12:41:00.315Z,12.57
2019-06-07T12:47:24.540Z,12.57
2019-06-07T12:50:01.045Z,12.40
2019-06-07T12:52:35.418Z,10.40
2019-06-07T12:55:10.899Z,9.47
2019-06-07T13:01:18.503Z,10.83
2019-06-07T13:03:53.308Z,13.03
2019-06-07T13:09:59.876Z,12.60
2019-06-07T13:16:24.338Z,10.93
2019-06-07T13:22:22.389Z,10.57
2019-06-07T13:28:29.508Z,7.90
2019-06-07T13:34:35.277Z,7.70
2019-06-07T13:40:38.903Z,5.47
2019-06-07T13:46:47.906Z,4.70
2019-06-07T13:52:54.917Z,4.40
2019-06-07T13:59:00.418Z,3.63
2019-06-07T14:05:16.911Z,4.43
2019-06-07T14:08:02.330Z,4.43
2019-06-07T14:14:10.344Z,4.13
2019-06-07T14:16:50.913Z,4.00
2019-06-07T14:19:31.882Z,6.50
2019-06-07T14:22:07.527Z,7.33
2019-06-07T14:24:43.795Z,5.57
2019-06-07T14:27:23.425Z,5.80
2019-06-07T14:30:00.414Z,6.37
2019-06-07T14:32:38.727Z,6.23
2019-06-07T14:35:18.927Z,6.67
2019-06-07T14:37:59.441Z,9.13
2019-06-07T14:40:36.321Z,10.90
2019-06-07T14:43:20.567Z,11.43
2019-06-07T14:45:57.441Z,11.80
2019-06-07T14:48:34.624Z,10.87
2019-06-07T14:51:14.687Z,12.77
2019-06-07T14:57:33.709Z,10.80
2019-06-07T15:03:59.400Z,8.87
2019-06-07T15:10:04.363Z,6.17
2019-06-07T15:12:48.445Z,5.17
2019-06-07T15:15:28.290Z,6.43
2019-06-07T15:18:06.938Z,6.47
2019-06-07T15:20:48.450Z,4.37
2019-06-07T15:23:33.483Z,4.97
2019-06-07T15:26:08.762Z,4.80
2019-06-07T15:28:47.477Z,4.43
2019-06-07T15:31:22.950Z,3.93
2019-06-07T15:34:04.664Z,3.70
2019-06-07T15:36:47.526Z,2.73
2019-06-07T15:39:26.456Z,3.23
2019-06-07T15:42:02.946Z,2.40
2019-06-07T15:44:47.581Z,2.47
2019-06-07T15:47:25.481Z,2.60
2019-06-07T15:50:02.151Z,2.70
2019-06-07T15:52:41.316Z,2.17
2019-06-07T15:55:18.361Z,2.47
2019-06-07T15:57:55.938Z,2.67
2019-06-07T16:00:35.426Z,2.50
2019-06-07T16:03:10.941Z,2.33
2019-06-07T16:05:47.950Z,2.57
2019-06-07T16:08:26.433Z,3.17
2019-06-07T16:11:02.958Z,2.80
2019-06-07T16:13:40.771Z,2.67
2019-06-07T16:16:16.864Z,2.53
2019-06-07T16:18:52.981Z,2.20
2019-06-07T16:21:33.155Z,2.17
2019-06-07T16:24:11.410Z,2.60
2019-06-07T16:26:48.951Z,2.70
2019-06-07T16:29:30.987Z,2.60
2019-06-07T16:35:31.961Z,2.83
2019-06-07T16:41:40.411Z,3.40
2019-06-07T16:44:16.831Z,3.27
2019-06-07T16:46:54.939Z,3.70
2019-06-07T16:49:32.065Z,3.73
2019-06-07T16:52:08.485Z,4.30
2019-06-07T16:54:43.519Z,3.93
2019-06-07T16:57:24.018Z,4.40
2019-06-07T17:00:02.598Z,4.50
2019-06-07T17:02:40.358Z,4.50
2019-06-07T17:05:16.071Z,4.30
2019-06-07T17:07:51.102Z,3.40
2019-06-07T17:10:28.764Z,3.17
2019-06-07T17:13:07.073Z,2.87
2019-06-07T17:19:14.607Z,2.70
2019-06-07T17:21:51.095Z,2.53
2019-06-07T17:28:08.512Z,2.10
2019-06-07T17:34:30.877Z,1.80
2019-06-07T17:40:52.830Z,1.63
2019-06-07T17:47:09.095Z,1.50
2019-06-07T17:49:49.940Z,1.77
2019-06-07T17:52:24.638Z,1.57
2019-06-07T17:55:00.491Z,1.80
2019-06-07T17:57:36.113Z,1.53
2019-06-07T18:00:28.048Z,1.70
2019-06-07T18:02:50.872Z,1.27
2019-06-07T18:08:55.672Z,1.13
2019-06-07T18:11:31.518Z,1.07
2019-06-07T18:14:10.587Z,1.00
2019-06-07T18:16:46.539Z,1.40
2019-06-07T18:19:25.133Z,1.10
2019-06-07T18:22:02.506Z,0.90
2019-06-07T18:24:48.503Z,1.03
2019-06-07T18:27:29.777Z,0.97
2019-06-07T18:30:11.512Z,1.27
2019-06-07T18:32:51.365Z,1.20
2019-06-07T18:35:28.600Z,1.07
2019-06-07T18:38:06.094Z,0.90
2019-06-07T18:40:45.122Z,1.10
2019-06-07T18:43:22.506Z,0.80
2019-06-07T18:46:01.139Z,1.10
2019-06-07T18:48:39.083Z,0.83
2019-06-07T18:51:23.999Z,0.97
2019-06-07T18:54:07.836Z,1.33
2019-06-07T18:57:13.112Z,0.70
2019-06-07T18:59:54.512Z,0.80
2019-06-07T19:02:44.047Z,1.13
2019-06-07T19:05:45.592Z,1.00
2019-06-07T19:08:42.739Z,0.67
2019-06-07T19:11:20.026Z,0.73
2019-06-07T19:13:55.678Z,0.90
2019-06-07T19:16:31.729Z,0.70
2019-06-07T19:19:07.992Z,0.90
2019-06-07T19:21:42.118Z,0.70
2019-06-07T19:24:18.192Z,1.17
2019-06-07T19:26:54.515Z,0.90
2019-06-07T19:29:32.631Z,1.10
2019-06-07T19:32:08.148Z,0.97
2019-06-07T19:34:48.846Z,0.80
2019-06-07T19:37:24.123Z,1.00
2019-06-07T19:40:00.124Z,0.87
2019-06-07T19:42:38.784Z,0.80
2019-06-07T19:45:30.719Z,0.90
2019-06-07T19:47:56.432Z,0.90
2019-06-07T19:50:34.620Z,0.93
2019-06-07T19:53:11.690Z,1.00
2019-06-07T19:55:46.135Z,1.10
2019-06-07T19:58:20.744Z,1.10
2019-06-07T20:00:59.605Z,0.90
2019-06-07T20:03:36.739Z,0.80
2019-06-07T20:06:13.617Z,0.80
2019-06-07T20:08:50.246Z,0.97
2019-06-07T20:11:24.142Z,1.20
2019-06-07T20:14:00.761Z,0.90
2019-06-07T20:16:40.734Z,0.77
2019-06-07T20:19:20.668Z,1.00
2019-06-07T20:21:56.750Z,0.83
2019-06-07T20:24:32.572Z,0.93
2019-06-07T20:27:10.183Z,0.90
2019-06-07T20:29:47.762Z,1.33
2019-06-07T20:32:25.159Z,0.70
2019-06-07T20:35:00.143Z,0.80
2019-06-07T20:37:42.296Z,0.90
2019-06-07T20:40:24.567Z,0.80
2019-06-07T20:43:05.773Z,0.67
2019-06-07T20:45:43.771Z,0.90
2019-06-07T20:48:21.665Z,0.70
2019-06-07T20:51:04.504Z,0.90
2019-06-07T20:53:47.725Z,0.97
2019-06-07T20:56:24.570Z,1.03
2019-06-07T20:58:58.436Z,0.77
2019-06-07T21:01:36.498Z,0.90
2019-06-07T21:07:46.980Z,0.73
2019-06-07T21:14:08.727Z,0.97
2019-06-07T21:16:50.837Z,0.80
2019-06-07T21:19:35.111Z,1.20
2019-06-07T21:25:37.631Z,1.00
2019-06-07T21:28:14.757Z,0.87
2019-06-07T21:30:50.609Z,0.80
2019-06-07T21:33:28.196Z,0.80
2019-06-07T21:36:05.977Z,1.03
2019-06-07T21:38:42.672Z,1.00
2019-06-07T21:41:21.224Z,0.80
2019-06-07T21:43:58.678Z,0.90
2019-06-07T21:46:36.785Z,0.83
2019-06-07T21:49:16.202Z,1.00
2019-06-07T21:55:18.619Z,1.10
2019-06-07T21:57:56.494Z,0.83
2019-06-07T22:01:08.100Z,0.77
2019-06-07T22:03:44.201Z,0.70
2019-06-07T22:06:19.238Z,0.73
2019-06-07T22:09:09.966Z,1.20
2019-06-07T22:11:45.214Z,1.00
2019-06-07T22:14:21.224Z,0.80
2019-06-07T22:16:59.707Z,1.10
2019-06-07T22:19:38.020Z,0.97
2019-06-07T22:22:14.927Z,0.70
2019-06-07T22:27:55.067Z,0.90
2019-06-07T22:30:29.693Z,0.90
2019-06-07T22:33:08.695Z,1.00
2019-06-07T22:35:52.668Z,0.70
2019-06-07T22:38:24.248Z,0.80
2019-06-07T22:40:58.633Z,0.70
2019-06-07T22:43:39.604Z,1.00
2019-06-07T22:46:37.100Z,0.80
2019-06-07T22:49:04.241Z,0.90
2019-06-07T22:51:43.227Z,0.90
2019-06-07T22:54:20.630Z,0.90
2019-06-07T22:57:12.216Z,0.90
2019-06-07T22:59:51.813Z,1.00
2019-06-07T23:02:35.141Z,0.80
2019-06-07T23:05:14.789Z,1.10
2019-06-07T23:07:52.259Z,0.90
2019-06-07T23:10:33.837Z,1.60
2019-06-07T23:16:54.217Z,0.80
2019-06-07T23:19:24.066Z,0.97
2019-06-07T23:22:06.062Z,1.00
2019-06-07T23:24:41.219Z,0.80
2019-06-07T23:27:16.442Z,1.00
2019-06-07T23:29:53.239Z,0.90
2019-06-07T23:33:21.230Z,1.00
2019-06-07T23:35:57.231Z,0.80
2019-06-07T23:42:02.226Z,0.83
2019-06-07T23:44:42.862Z,1.20
2019-06-07T23:47:24.665Z,0.97
2019-06-07T23:50:08.230Z,0.83
2019-06-07T23:52:46.806Z,1.20
2019-06-07T23:58:59.233Z,1.20
